Terminal Aerodrome Forecast
Issued by NWS

Home | Current Version | Previous Version | Text Only | Print | Product List | Glossary Off
Versions: 1 2 3 4 5 6 7 8 9 10 11 12 13 14 15 16 17 18 19 20 21 22 23 24 25 26 27 28

000
FTUS43 KABR 281100 AAC
TAFMBG
TAF AMD
KMBG 281106Z 2811/2906 VRB06KT 5SM -SHRA BR BKN006 BKN013 OVC110
     FM281800 06006KT P6SM SCT015 BKN035 OVC150
     FM290200 11006KT P6SM SCT120 SCT250=

USA.gov is the U.S. government's official web portal to all federal, state and local government web resources and services.